sensor_id;sensor_type;location;lat;lon;timestamp;pressure;altitude;pressure_sealevel;temperature;humidity
75815;BME280;70031;45.570;14.228;2023-11-21T00:00:16;96308.59;;;9.37;100.00
75815;BME280;70031;45.570;14.228;2023-11-21T00:02:17;96305.25;;;9.45;100.00
75815;BME280;70031;45.570;14.228;2023-11-21T00:04:17;96308.28;;;9.39;100.00
75815;BME280;70031;45.570;14.228;2023-11-21T00:06:17;96315.84;;;9.37;100.00
75815;BME280;70031;45.570;14.228;2023-11-21T00:08:18;96309.56;;;9.27;100.00
75815;BME280;70031;45.570;14.228;2023-11-21T00:10:18;96305.53;;;9.44;100.00
75815;BME280;70031;45.570;14.228;2023-11-21T00:12:19;96306.03;;;9.46;100.00
75815;BME280;70031;45.570;14.228;2023-11-21T00:14:20;96307.25;;;9.53;100.00
75815;BME280;70031;45.570;14.228;2023-11-21T00:16:21;96308.78;;;9.41;100.00
75815;BME280;70031;45.570;14.228;2023-11-21T00:18:24;96311.84;;;9.53;100.00
75815;BME280;70031;45.570;14.228;2023-11-21T00:20:24;96305.13;;;9.69;100.00
75815;BME280;70031;45.570;14.228;2023-11-21T00:22:25;96297.47;;;9.44;100.00
75815;BME280;70031;45.570;14.228;2023-11-21T00:24:25;96292.84;;;9.31;100.00
75815;BME280;70031;45.570;14.228;2023-11-21T00:26:25;96290.16;;;9.31;100.00
75815;BME280;70031;45.570;14.228;2023-11-21T00:28:26;96300.91;;;9.31;100.00
75815;BME280;70031;45.570;14.228;2023-11-21T00:30:26;96302.19;;;9.52;100.00
75815;BME280;70031;45.570;14.228;2023-11-21T00:32:26;96297.91;;;9.65;100.00
75815;BME280;70031;45.570;14.228;2023-11-21T00:34:27;96295.06;;;9.75;100.00
75815;BME280;70031;45.570;14.228;2023-11-21T00:36:27;96292.56;;;9.65;100.00
75815;BME280;70031;45.570;14.228;2023-11-21T00:38:28;96287.78;;;9.62;100.00
75815;BME280;70031;45.570;14.228;2023-11-21T00:40:28;96283.25;;;9.43;100.00
75815;BME280;70031;45.570;14.228;2023-11-21T00:42:28;96276.81;;;9.25;100.00
75815;BME280;70031;45.570;14.228;2023-11-21T00:44:29;96283.06;;;9.21;100.00
75815;BME280;70031;45.570;14.228;2023-11-21T00:46:29;96280.78;;;9.47;100.00
75815;BME280;70031;45.570;14.228;2023-11-21T00:48:29;96279.97;;;9.46;100.00
75815;BME280;70031;45.570;14.228;2023-11-21T00:50:29;96273.56;;;9.42;100.00
75815;BME280;70031;45.570;14.228;2023-11-21T00:52:30;96274.66;;;9.27;100.00
75815;BME280;70031;45.570;14.228;2023-11-21T00:54:30;96271.53;;;9.53;100.00
75815;BME280;70031;45.570;14.228;2023-11-21T00:56:30;96274.13;;;9.58;100.00
75815;BME280;70031;45.570;14.228;2023-11-21T00:58:31;96275.50;;;9.23;100.00
75815;BME280;70031;45.570;14.228;2023-11-21T01:00:35;96267.59;;;9.32;100.00
75815;BME280;70031;45.570;14.228;2023-11-21T01:02:35;96272.53;;;9.24;100.00
75815;BME280;70031;45.570;14.228;2023-11-21T01:04:35;96269.31;;;9.41;100.00
75815;BME280;70031;45.570;14.228;2023-11-21T01:06:36;96265.06;;;9.54;100.00
75815;BME280;70031;45.570;14.228;2023-11-21T01:08:36;96267.16;;;9.43;100.00
75815;BME280;70031;45.570;14.228;2023-11-21T01:10:36;96260.06;;;9.47;100.00
75815;BME280;70031;45.570;14.228;2023-11-21T01:12:37;96247.69;;;9.33;100.00
75815;BME280;70031;45.570;14.228;2023-11-21T01:14:37;96255.94;;;9.22;100.00
75815;BME280;70031;45.570;14.228;2023-11-21T01:16:38;96253.25;;;9.22;100.00
75815;BME280;70031;45.570;14.228;2023-11-21T01:18:38;96253.16;;;9.27;100.00
75815;BME280;70031;45.570;14.228;2023-11-21T01:20:38;96255.00;;;9.13;100.00
75815;BME280;70031;45.570;14.228;2023-11-21T01:22:38;96252.03;;;9.15;100.00
75815;BME280;70031;45.570;14.228;2023-11-21T01:24:39;96250.50;;;9.27;100.00
75815;BME280;70031;45.570;14.228;2023-11-21T01:26:39;96245.81;;;9.33;100.00
75815;BME280;70031;45.570;14.228;2023-11-21T01:28:39;96242.00;;;9.53;100.00
75815;BME280;70031;45.570;14.228;2023-11-21T01:30:40;96230.47;;;9.80;100.00
75815;BME280;70031;45.570;14.228;2023-11-21T01:32:40;96236.44;;;9.63;100.00
75815;BME280;70031;45.570;14.228;2023-11-21T01:34:40;96230.34;;;9.44;100.00
75815;BME280;70031;45.570;14.228;2023-11-21T01:36:41;96222.06;;;9.40;100.00
75815;BME280;70031;45.570;14.228;2023-11-21T01:38:41;96219.28;;;9.45;100.00
75815;BME280;70031;45.570;14.228;2023-11-21T01:40:42;96222.78;;;9.60;100.00
75815;BME280;70031;45.570;14.228;2023-11-21T01:42:42;96232.78;;;9.87;100.00
75815;BME280;70031;45.570;14.228;2023-11-21T01:44:43;96225.28;;;9.83;100.00
75815;BME280;70031;45.570;14.228;2023-11-21T01:46:43;96235.25;;;9.69;100.00
75815;BME280;70031;45.570;14.228;2023-11-21T01:48:44;96238.81;;;9.65;100.00
75815;BME280;70031;45.570;14.228;2023-11-21T01:50:45;96236.06;;;9.70;100.00
75815;BME280;70031;45.570;14.228;2023-11-21T01:52:45;96240.06;;;9.40;100.00
75815;BME280;70031;45.570;14.228;2023-11-21T01:54:46;96242.13;;;9.29;100.00
75815;BME280;70031;45.570;14.228;2023-11-21T01:56:47;96241.22;;;9.34;100.00
75815;BME280;70031;45.570;14.228;2023-11-21T01:58:48;96242.03;;;9.34;100.00
75815;BME280;70031;45.570;14.228;2023-11-21T02:00:48;96240.81;;;9.26;100.00
75815;BME280;70031;45.570;14.228;2023-11-21T02:02:50;96239.34;;;9.34;100.00
75815;BME280;70031;45.570;14.228;2023-11-21T02:04:51;96231.66;;;9.60;100.00
75815;BME280;70031;45.570;14.228;2023-11-21T02:06:51;96233.47;;;9.78;100.00
75815;BME280;70031;45.570;14.228;2023-11-21T02:08:51;96230.50;;;9.94;100.00
75815;BME280;70031;45.570;14.228;2023-11-21T02:10:52;96237.13;;;9.82;100.00
75815;BME280;70031;45.570;14.228;2023-11-21T02:12:52;96236.84;;;9.70;100.00
75815;BME280;70031;45.570;14.228;2023-11-21T02:14:52;96237.53;;;9.62;100.00
75815;BME280;70031;45.570;14.228;2023-11-21T02:16:53;96234.34;;;9.60;100.00
75815;BME280;70031;45.570;14.228;2023-11-21T02:18:53;96233.38;;;9.70;100.00
75815;BME280;70031;45.570;14.228;2023-11-21T02:20:55;96225.50;;;9.73;100.00
75815;BME280;70031;45.570;14.228;2023-11-21T02:22:55;96225.28;;;9.83;100.00
75815;BME280;70031;45.570;14.228;2023-11-21T02:24:57;96226.28;;;9.74;100.00
75815;BME280;70031;45.570;14.228;2023-11-21T02:26:58;96215.75;;;9.77;100.00
75815;BME280;70031;45.570;14.228;2023-11-21T02:28:58;96209.19;;;9.97;100.00
75815;BME280;70031;45.570;14.228;2023-11-21T02:30:58;96206.09;;;10.04;100.00
75815;BME280;70031;45.570;14.228;2023-11-21T02:32:59;96199.81;;;10.08;100.00
75815;BME280;70031;45.570;14.228;2023-11-21T02:35:00;96197.22;;;10.17;100.00
75815;BME280;70031;45.570;14.228;2023-11-21T02:37:01;96192.44;;;10.14;100.00
75815;BME280;70031;45.570;14.228;2023-11-21T02:39:01;96189.66;;;10.05;100.00
75815;BME280;70031;45.570;14.228;2023-11-21T02:41:02;96201.53;;;10.04;100.00
75815;BME280;70031;45.570;14.228;2023-11-21T02:43:02;96201.44;;;10.09;100.00
75815;BME280;70031;45.570;14.228;2023-11-21T02:45:02;96194.53;;;10.17;100.00
75815;BME280;70031;45.570;14.228;2023-11-21T02:47:03;96189.47;;;10.29;100.00
75815;BME280;70031;45.570;14.228;2023-11-21T02:49:04;96192.66;;;10.31;100.00
75815;BME280;70031;45.570;14.228;2023-11-21T02:51:06;96186.38;;;10.36;100.00
75815;BME280;70031;45.570;14.228;2023-11-21T02:53:06;96180.00;;;10.32;100.00
75815;BME280;70031;45.570;14.228;2023-11-21T02:55:06;96167.94;;;10.29;100.00
75815;BME280;70031;45.570;14.228;2023-11-21T02:57:09;96167.66;;;10.31;100.00
75815;BME280;70031;45.570;14.228;2023-11-21T02:59:10;96160.84;;;10.33;100.00
75815;BME280;70031;45.570;14.228;2023-11-21T03:01:10;96160.78;;;10.25;100.00
75815;BME280;70031;45.570;14.228;2023-11-21T03:03:11;96157.41;;;10.19;100.00
75815;BME280;70031;45.570;14.228;2023-11-21T03:05:11;96161.91;;;10.10;100.00
75815;BME280;70031;45.570;14.228;2023-11-21T03:07:11;96162.00;;;10.05;100.00
75815;BME280;70031;45.570;14.228;2023-11-21T03:09:12;96158.19;;;10.06;100.00
75815;BME280;70031;45.570;14.228;2023-11-21T03:11:12;96148.66;;;10.27;100.00
75815;BME280;70031;45.570;14.228;2023-11-21T03:13:13;96151.19;;;10.32;100.00
75815;BME280;70031;45.570;14.228;2023-11-21T03:15:13;96155.56;;;10.42;100.00
75815;BME280;70031;45.570;14.228;2023-11-21T03:17:13;96162.81;;;10.41;100.00
75815;BME280;70031;45.570;14.228;2023-11-21T03:19:14;96160.13;;;10.41;100.00
75815;BME280;70031;45.570;14.228;2023-11-21T03:21:15;96167.34;;;10.19;100.00
75815;BME280;70031;45.570;14.228;2023-11-21T03:23:15;96168.06;;;10.24;100.00
75815;BME280;70031;45.570;14.228;2023-11-21T03:25:15;96161.47;;;10.30;100.00
75815;BME280;70031;45.570;14.228;2023-11-21T03:27:17;96162.97;;;10.09;100.00
75815;BME280;70031;45.570;14.228;2023-11-21T03:29:17;96159.69;;;9.98;100.00
75815;BME280;70031;45.570;14.228;2023-11-21T03:31:17;96149.97;;;9.89;100.00
75815;BME280;70031;45.570;14.228;2023-11-21T03:33:18;96151.84;;;9.74;100.00
75815;BME280;70031;45.570;14.228;2023-11-21T03:35:19;96154.34;;;9.71;100.00
75815;BME280;70031;45.570;14.228;2023-11-21T03:37:21;96154.06;;;9.86;100.00
75815;BME280;70031;45.570;14.228;2023-11-21T03:39:21;96157.91;;;10.07;100.00
75815;BME280;70031;45.570;14.228;2023-11-21T03:41:22;96158.59;;;10.13;100.00
75815;BME280;70031;45.570;14.228;2023-11-21T03:43:22;96162.19;;;10.22;100.00
75815;BME280;70031;45.570;14.228;2023-11-21T03:45:22;96155.50;;;10.20;100.00
75815;BME280;70031;45.570;14.228;2023-11-21T03:47:23;96162.97;;;10.23;100.00
75815;BME280;70031;45.570;14.228;2023-11-21T03:49:23;96171.53;;;10.11;100.00
75815;BME280;70031;45.570;14.228;2023-11-21T03:51:24;96167.75;;;10.12;100.00
75815;BME280;70031;45.570;14.228;2023-11-21T03:53:24;96164.50;;;9.88;100.00
75815;BME280;70031;45.570;14.228;2023-11-21T03:55:24;96178.13;;;9.77;100.00
75815;BME280;70031;45.570;14.228;2023-11-21T03:57:25;96171.34;;;9.66;100.00
75815;BME280;70031;45.570;14.228;2023-11-21T03:59:25;96181.22;;;9.71;100.00
75815;BME280;70031;45.570;14.228;2023-11-21T04:01:25;96174.66;;;9.63;100.00
75815;BME280;70031;45.570;14.228;2023-11-21T04:03:25;96171.97;;;9.63;100.00
75815;BME280;70031;45.570;14.228;2023-11-21T04:05:26;96161.81;;;9.74;100.00
75815;BME280;70031;45.570;14.228;2023-11-21T04:07:26;96170.56;;;9.93;100.00
75815;BME280;70031;45.570;14.228;2023-11-21T04:09:27;96169.84;;;10.15;100.00
75815;BME280;70031;45.570;14.228;2023-11-21T04:11:27;96165.38;;;10.24;100.00
75815;BME280;70031;45.570;14.228;2023-11-21T04:13:29;96168.84;;;10.25;100.00
75815;BME280;70031;45.570;14.228;2023-11-21T04:15:30;96158.59;;;10.27;100.00
75815;BME280;70031;45.570;14.228;2023-11-21T04:17:31;96161.78;;;10.29;100.00
75815;BME280;70031;45.570;14.228;2023-11-21T04:19:31;96166.94;;;10.25;100.00
75815;BME280;70031;45.570;14.228;2023-11-21T04:21:31;96170.94;;;10.28;100.00
75815;BME280;70031;45.570;14.228;2023-11-21T04:23:33;96174.22;;;10.11;100.00
75815;BME280;70031;45.570;14.228;2023-11-21T04:25:34;96169.53;;;10.17;100.00
75815;BME280;70031;45.570;14.228;2023-11-21T04:27:34;96151.41;;;10.08;100.00
75815;BME280;70031;45.570;14.228;2023-11-21T04:29:34;96150.94;;;9.93;100.00
75815;BME280;70031;45.570;14.228;2023-11-21T04:31:35;96150.84;;;9.98;100.00
75815;BME280;70031;45.570;14.228;2023-11-21T04:33:35;96149.25;;;10.10;100.00
75815;BME280;70031;45.570;14.228;2023-11-21T04:35:35;96150.03;;;10.11;100.00
75815;BME280;70031;45.570;14.228;2023-11-21T04:37:35;96149.72;;;10.12;100.00
75815;BME280;70031;45.570;14.228;2023-11-21T04:39:36;96146.63;;;10.19;100.00
75815;BME280;70031;45.570;14.228;2023-11-21T04:41:36;96147.06;;;10.26;100.00
75815;BME280;70031;45.570;14.228;2023-11-21T04:43:39;96142.75;;;10.25;100.00
75815;BME280;70031;45.570;14.228;2023-11-21T04:45:39;96149.81;;;10.21;100.00
75815;BME280;70031;45.570;14.228;2023-11-21T04:47:41;96151.63;;;10.12;100.00
75815;BME280;70031;45.570;14.228;2023-11-21T04:49:42;96152.22;;;10.23;100.00
75815;BME280;70031;45.570;14.228;2023-11-21T04:51:43;96151.41;;;10.08;100.00
75815;BME280;70031;45.570;14.228;2023-11-21T04:53:43;96144.66;;;10.11;100.00
75815;BME280;70031;45.570;14.228;2023-11-21T04:55:43;96145.84;;;10.19;100.00
75815;BME280;70031;45.570;14.228;2023-11-21T04:57:43;96149.22;;;10.24;100.00
75815;BME280;70031;45.570;14.228;2023-11-21T04:59:44;96156.88;;;10.17;100.00
75815;BME280;70031;45.570;14.228;2023-11-21T05:01:44;96153.91;;;10.19;100.00
75815;BME280;70031;45.570;14.228;2023-11-21T05:03:44;96151.63;;;10.12;100.00
75815;BME280;70031;45.570;14.228;2023-11-21T05:05:45;96148.47;;;9.96;100.00
75815;BME280;70031;45.570;14.228;2023-11-21T05:07:45;96154.16;;;9.95;100.00
75815;BME280;70031;45.570;14.228;2023-11-21T05:09:45;96153.03;;;9.96;100.00
75815;BME280;70031;45.570;14.228;2023-11-21T05:11:46;96154.31;;;9.84;100.00
75815;BME280;70031;45.570;14.228;2023-11-21T05:13:46;96157.53;;;9.87;100.00
75815;BME280;70031;45.570;14.228;2023-11-21T05:15:46;96156.66;;;9.77;100.00
75815;BME280;70031;45.570;14.228;2023-11-21T05:17:46;96152.25;;;9.81;100.00
75815;BME280;70031;45.570;14.228;2023-11-21T05:19:49;96162.69;;;9.83;100.00
75815;BME280;70031;45.570;14.228;2023-11-21T05:21:49;96157.22;;;9.74;100.00
75815;BME280;70031;45.570;14.228;2023-11-21T05:23:50;96163.69;;;9.60;100.00
75815;BME280;70031;45.570;14.228;2023-11-21T05:25:50;96168.19;;;9.64;100.00
75815;BME280;70031;45.570;14.228;2023-11-21T05:27:51;96161.91;;;9.55;100.00
75815;BME280;70031;45.570;14.228;2023-11-21T05:29:51;96157.03;;;9.43;100.00
75815;BME280;70031;45.570;14.228;2023-11-21T05:31:51;96157.59;;;9.40;100.00
75815;BME280;70031;45.570;14.228;2023-11-21T05:33:53;96151.81;;;9.19;100.00
75815;BME280;70031;45.570;14.228;2023-11-21T05:35:53;96150.09;;;9.10;100.00
75815;BME280;70031;45.570;14.228;2023-11-21T05:37:53;96148.44;;;9.14;100.00
75815;BME280;70031;45.570;14.228;2023-11-21T05:39:54;96149.22;;;9.14;100.00
75815;BME280;70031;45.570;14.228;2023-11-21T05:41:56;96153.00;;;9.13;100.00
75815;BME280;70031;45.570;14.228;2023-11-21T05:43:57;96157.75;;;9.03;100.00
75815;BME280;70031;45.570;14.228;2023-11-21T05:45:57;96149.41;;;9.18;100.00
75815;BME280;70031;45.570;14.228;2023-11-21T05:47:58;96150.00;;;9.15;100.00
75815;BME280;70031;45.570;14.228;2023-11-21T05:49:58;96151.22;;;9.22;100.00
75815;BME280;70031;45.570;14.228;2023-11-21T05:51:59;96151.66;;;9.57;100.00
75815;BME280;70031;45.570;14.228;2023-11-21T05:53:59;96141.09;;;9.74;100.00
75815;BME280;70031;45.570;14.228;2023-11-21T05:56:00;96141.41;;;9.73;100.00
75815;BME280;70031;45.570;14.228;2023-11-21T05:58:00;96144.00;;;9.64;100.00
75815;BME280;70031;45.570;14.228;2023-11-21T06:00:00;96143.91;;;9.55;100.00
75815;BME280;70031;45.570;14.228;2023-11-21T06:02:03;96150.84;;;9.43;100.00
75815;BME280;70031;45.570;14.228;2023-11-21T06:04:03;96146.59;;;9.55;100.00
75815;BME280;70031;45.570;14.228;2023-11-21T06:06:04;96149.78;;;9.71;100.00
75815;BME280;70031;45.570;14.228;2023-11-21T06:08:04;96144.69;;;9.83;100.00
75815;BME280;70031;45.570;14.228;2023-11-21T06:10:05;96143.09;;;9.96;100.00
75815;BME280;70031;45.570;14.228;2023-11-21T06:12:12;96138.31;;;9.79;100.00
75815;BME280;70031;45.570;14.228;2023-11-21T06:14:12;96137.94;;;9.72;100.00
75815;BME280;70031;45.570;14.228;2023-11-21T06:16:13;96141.41;;;9.59;100.00
75815;BME280;70031;45.570;14.228;2023-11-21T06:18:16;96140.63;;;9.86;100.00
75815;BME280;70031;45.570;14.228;2023-11-21T06:20:16;96143.00;;;9.88;100.00
75815;BME280;70031;45.570;14.228;2023-11-21T06:22:18;96160.22;;;9.73;100.00
75815;BME280;70031;45.570;14.228;2023-11-21T06:24:18;96161.59;;;9.56;100.00
75815;BME280;70031;45.570;14.228;2023-11-21T06:26:20;96156.91;;;9.76;100.00
75815;BME280;70031;45.570;14.228;2023-11-21T06:28:20;96154.44;;;9.79;100.00
75815;BME280;70031;45.570;14.228;2023-11-21T06:30:21;96156.63;;;9.64;100.00
75815;BME280;70031;45.570;14.228;2023-11-21T06:32:21;96149.06;;;9.66;100.00
75815;BME280;70031;45.570;14.228;2023-11-21T06:34:22;96153.44;;;9.48;100.00
75815;BME280;70031;45.570;14.228;2023-11-21T06:36:22;96158.81;;;9.48;100.00
75815;BME280;70031;45.570;14.228;2023-11-21T06:38:23;96160.69;;;9.34;100.00
75815;BME280;70031;45.570;14.228;2023-11-21T06:40:23;96159.41;;;9.45;100.00
75815;BME280;70031;45.570;14.228;2023-11-21T06:42:25;96159.72;;;9.71;100.00
75815;BME280;70031;45.570;14.228;2023-11-21T06:44:25;96165.41;;;9.69;100.00
75815;BME280;70031;45.570;14.228;2023-11-21T06:46:26;96165.69;;;9.54;100.00
75815;BME280;70031;45.570;14.228;2023-11-21T06:48:26;96169.34;;;9.58;100.00
75815;BME280;70031;45.570;14.228;2023-11-21T06:50:26;96170.16;;;9.58;100.00
75815;BME280;70031;45.570;14.228;2023-11-21T06:52:26;96171.34;;;9.66;100.00
75815;BME280;70031;45.570;14.228;2023-11-21T06:54:27;96172.16;;;9.94;100.00
75815;BME280;70031;45.570;14.228;2023-11-21T06:56:27;96169.16;;;10.09;100.00
75815;BME280;70031;45.570;14.228;2023-11-21T06:58:27;96169.88;;;10.01;100.00
75815;BME280;70031;45.570;14.228;2023-11-21T07:00:27;96170.28;;;9.95;100.00
75815;BME280;70031;45.570;14.228;2023-11-21T07:02:30;96162.59;;;9.88;100.00
75815;BME280;70031;45.570;14.228;2023-11-21T07:04:30;96160.97;;;10.01;100.00
75815;BME280;70031;45.570;14.228;2023-11-21T07:06:31;96164.06;;;10.08;100.00
75815;BME280;70031;45.570;14.228;2023-11-21T07:08:31;96165.38;;;9.97;100.00
75815;BME280;70031;45.570;14.228;2023-11-21T07:10:32;96172.13;;;10.08;100.00
75815;BME280;70031;45.570;14.228;2023-11-21T07:12:32;96162.97;;;10.09;100.00
75815;BME280;70031;45.570;14.228;2023-11-21T07:14:33;96168.25;;;10.14;100.00
75815;BME280;70031;45.570;14.228;2023-11-21T07:16:34;96162.19;;;10.22;100.00
75815;BME280;70031;45.570;14.228;2023-11-21T07:18:35;96157.50;;;10.28;100.00
75815;BME280;70031;45.570;14.228;2023-11-21T07:20:35;96160.28;;;10.09;100.00
75815;BME280;70031;45.570;14.228;2023-11-21T07:22:35;96157.41;;;10.19;100.00
75815;BME280;70031;45.570;14.228;2023-11-21T07:24:36;96160.06;;;10.33;100.00
75815;BME280;70031;45.570;14.228;2023-11-21T07:26:36;96159.09;;;10.29;100.00
75815;BME280;70031;45.570;14.228;2023-11-21T07:28:37;96170.31;;;10.17;100.00
75815;BME280;70031;45.570;14.228;2023-11-21T07:30:37;96173.94;;;10.26;100.00
75815;BME280;70031;45.570;14.228;2023-11-21T07:32:38;96175.41;;;10.19;100.00
75815;BME280;70031;45.570;14.228;2023-11-21T07:34:41;96173.50;;;10.33;100.00
75815;BME280;70031;45.570;14.228;2023-11-21T07:36:42;96181.50;;;9.97;100.00
75815;BME280;70031;45.570;14.228;2023-11-21T07:38:42;96178.31;;;10.22;100.00
75815;BME280;70031;45.570;14.228;2023-11-21T07:40:42;96176.41;;;10.36;100.00
75815;BME280;70031;45.570;14.228;2023-11-21T07:42:42;96180.00;;;10.18;100.00
75815;BME280;70031;45.570;14.228;2023-11-21T07:44:43;96185.84;;;10.34;100.00
75815;BME280;70031;45.570;14.228;2023-11-21T07:46:43;96172.63;;;10.37;100.00
75815;BME280;70031;45.570;14.228;2023-11-21T07:48:44;96186.69;;;10.34;100.00
75815;BME280;70031;45.570;14.228;2023-11-21T07:50:46;96183.09;;;9.84;100.00
75815;BME280;70031;45.570;14.228;2023-11-21T07:52:47;96185.09;;;9.92;100.00
75815;BME280;70031;45.570;14.228;2023-11-21T07:54:48;96184.28;;;9.92;100.00
75815;BME280;70031;45.570;14.228;2023-11-21T07:56:48;96186.28;;;10.00;100.00
75815;BME280;70031;45.570;14.228;2023-11-21T07:58:48;96192.66;;;10.04;100.00
75815;BME280;70031;45.570;14.228;2023-11-21T08:00:50;96195.41;;;10.40;100.00
75815;BME280;70031;45.570;14.228;2023-11-21T08:02:50;96194.06;;;10.65;100.00
75815;BME280;70031;45.570;14.228;2023-11-21T08:04:50;96194.28;;;10.55;100.00
75815;BME280;70031;45.570;14.228;2023-11-21T08:06:51;96194.03;;;10.43;100.00
75815;BME280;70031;45.570;14.228;2023-11-21T08:08:51;96202.38;;;10.41;100.00
75815;BME280;70031;45.570;14.228;2023-11-21T08:10:51;96201.50;;;10.46;100.00
75815;BME280;70031;45.570;14.228;2023-11-21T08:12:56;96202.59;;;10.45;100.00
75815;BME280;70031;45.570;14.228;2023-11-21T08:14:56;96203.56;;;10.49;100.00
75815;BME280;70031;45.570;14.228;2023-11-21T08:16:56;96204.34;;;10.63;100.00
75815;BME280;70031;45.570;14.228;2023-11-21T08:18:57;96211.47;;;10.45;100.00
75815;BME280;70031;45.570;14.228;2023-11-21T08:20:57;96207.75;;;10.55;100.00
75815;BME280;70031;45.570;14.228;2023-11-21T08:22:58;96206.13;;;10.67;100.00
75815;BME280;70031;45.570;14.228;2023-11-21T08:24:58;96193.94;;;10.70;100.00
75815;BME280;70031;45.570;14.228;2023-11-21T08:26:58;96196.75;;;10.65;100.00
75815;BME280;70031;45.570;14.228;2023-11-21T08:28:59;96194.59;;;10.76;100.00
75815;BME280;70031;45.570;14.228;2023-11-21T08:31:00;96191.75;;;10.72;100.00
75815;BME280;70031;45.570;14.228;2023-11-21T08:33:00;96200.31;;;10.74;100.00
75815;BME280;70031;45.570;14.228;2023-11-21T08:35:00;96199.88;;;10.81;100.00
75815;BME280;70031;45.570;14.228;2023-11-21T08:37:01;96203.13;;;10.69;100.00
75815;BME280;70031;45.570;14.228;2023-11-21T08:39:01;96200.69;;;11.26;100.00
75815;BME280;70031;45.570;14.228;2023-11-21T08:41:02;96191.06;;;11.34;100.00
75815;BME280;70031;45.570;14.228;2023-11-21T08:43:02;96199.34;;;11.15;100.00
75815;BME280;70031;45.570;14.228;2023-11-21T08:45:04;96197.38;;;11.07;100.00
75815;BME280;70031;45.570;14.228;2023-11-21T08:47:08;96193.69;;;11.25;100.00
75815;BME280;70031;45.570;14.228;2023-11-21T08:49:09;96205.44;;;11.29;100.00
75815;BME280;70031;45.570;14.228;2023-11-21T08:51:11;96196.66;;;10.92;100.00
75815;BME280;70031;45.570;14.228;2023-11-21T08:53:12;96209.81;;;10.94;100.00
75815;BME280;70031;45.570;14.228;2023-11-21T08:55:12;96208.22;;;10.93;100.00
75815;BME280;70031;45.570;14.228;2023-11-21T08:57:12;96201.66;;;11.08;100.00
75815;BME280;70031;45.570;14.228;2023-11-21T08:59:13;96207.59;;;10.96;100.00
75815;BME280;70031;45.570;14.228;2023-11-21T09:01:14;96199.47;;;10.87;100.00
75815;BME280;70031;45.570;14.228;2023-11-21T09:03:14;96187.47;;;10.93;100.00
75815;BME280;70031;45.570;14.228;2023-11-21T09:05:14;96195.88;;;10.56;100.00
75815;BME280;70031;45.570;14.228;2023-11-21T09:07:15;96206.94;;;10.54;100.00
75815;BME280;70031;45.570;14.228;2023-11-21T09:09:16;96193.94;;;10.70;100.00
75815;BME280;70031;45.570;14.228;2023-11-21T09:11:16;96206.31;;;10.71;100.00
75815;BME280;70031;45.570;14.228;2023-11-21T09:13:17;96214.31;;;10.62;100.00
75815;BME280;70031;45.570;14.228;2023-11-21T09:15:17;96217.09;;;10.57;100.00
75815;BME280;70031;45.570;14.228;2023-11-21T09:17:17;96216.78;;;10.59;100.00
75815;BME280;70031;45.570;14.228;2023-11-21T09:19:18;96206.41;;;10.66;100.00
75815;BME280;70031;45.570;14.228;2023-11-21T09:21:19;96203.91;;;10.69;100.00
75815;BME280;70031;45.570;14.228;2023-11-21T09:23:19;96198.53;;;10.69;100.00
75815;BME280;70031;45.570;14.228;2023-11-21T09:25:19;96211.75;;;10.44;100.00
75815;BME280;70031;45.570;14.228;2023-11-21T09:27:21;96210.66;;;10.45;100.00
75815;BME280;70031;45.570;14.228;2023-11-21T09:29:21;96208.09;;;10.26;100.00
75815;BME280;70031;45.570;14.228;2023-11-21T09:31:22;96202.19;;;10.37;100.00
75815;BME280;70031;45.570;14.228;2023-11-21T09:33:23;96209.28;;;10.20;100.00
75815;BME280;70031;45.570;14.228;2023-11-21T09:35:25;96203.91;;;10.06;100.00
75815;BME280;70031;45.570;14.228;2023-11-21T09:37:25;96197.81;;;10.14;100.00
75815;BME280;70031;45.570;14.228;2023-11-21T09:39:27;96198.03;;;10.31;100.00
75815;BME280;70031;45.570;14.228;2023-11-21T09:41:34;96200.53;;;10.28;100.00
75815;BME280;70031;45.570;14.228;2023-11-21T09:43:39;96194.63;;;10.39;100.00
75815;BME280;70031;45.570;14.228;2023-11-21T09:45:39;96191.84;;;10.45;100.00
75815;BME280;70031;45.570;14.228;2023-11-21T09:47:40;96191.84;;;10.31;100.00
75815;BME280;70031;45.570;14.228;2023-11-21T09:49:46;96174.09;;;10.44;100.00
75815;BME280;70031;45.570;14.228;2023-11-21T09:51:47;96177.91;;;10.29;100.00
75815;BME280;70031;45.570;14.228;2023-11-21T09:53:48;96182.66;;;10.46;100.00
75815;BME280;70031;45.570;14.228;2023-11-21T09:55:51;96182.28;;;10.38;100.00
75815;BME280;70031;45.570;14.228;2023-11-21T09:57:52;96187.66;;;10.38;100.00
75815;BME280;70031;45.570;14.228;2023-11-21T09:59:54;96181.72;;;10.50;100.00
75815;BME280;70031;45.570;14.228;2023-11-21T10:01:56;96179.88;;;10.73;100.00
75815;BME280;70031;45.570;14.228;2023-11-21T10:03:58;96169.19;;;10.59;100.00
75815;BME280;70031;45.570;14.228;2023-11-21T10:05:59;96178.63;;;10.57;100.00
75815;BME280;70031;45.570;14.228;2023-11-21T10:08:00;96175.75;;;10.53;100.00
75815;BME280;70031;45.570;14.228;2023-11-21T10:10:01;96175.41;;;10.68;100.00
75815;BME280;70031;45.570;14.228;2023-11-21T10:12:01;96178.31;;;10.94;100.00
75815;BME280;70031;45.570;14.228;2023-11-21T10:14:03;96174.56;;;10.82;100.00
75815;BME280;70031;45.570;14.228;2023-11-21T10:16:04;96172.91;;;10.72;100.00
75815;BME280;70031;45.570;14.228;2023-11-21T10:18:07;96171.25;;;10.62;100.00
75815;BME280;70031;45.570;14.228;2023-11-21T10:20:07;96164.88;;;10.58;100.00
75815;BME280;70031;45.570;14.228;2023-11-21T10:22:11;96168.00;;;10.52;100.00
75815;BME280;70031;45.570;14.228;2023-11-21T10:24:12;96161.16;;;10.68;100.00
75815;BME280;70031;45.570;14.228;2023-11-21T10:26:12;96168.94;;;10.69;100.00